1999 Severe Tropical Cyclone EVRINA:FREDERIC (1999084S12119)


IBTrACS version v04r00. Visit IBTrACS website for data access.
Please direct all questions to the IBTrACS Q and A forum

Storm track - Intensity - Wind Radii - Intensity Data - Source Data - All data

Summary Information

Satellite image near maximum intensity
Storm ID 1999084S12119
Start Mar 25 00Z
Max Intensity 140 kt (Mar 31 12Z), 915 mb (Mar 31 12Z)
End Apr 10 18Z
ATCF IDs ,SH311999
Track status Best track data.

Storm track plot

Map of storm track

Intensity plots

Map of storm track

Radial wind information

Map of storm track

Position and Intensity Table

BASIN ISO_TIME_________ NATURE LAT LON WMO WIND WMO PRES USA WIND REUNION WIND REUNION PRES BOM WIND BOM PRES NEUMANN WIND NEUMANN PRES
degrees north degrees east kts mb kts kts mb kts mb kts mb
SI 1999-03-25 00:00:00 NR -11.90 119.30 15
SI 03:00:00 NR -11.95 119.07 15
SI 06:00:00 NR -12.00 118.80 15
SI 09:00:00 NR -12.04 118.48 17
SI 12:00:00 NR -12.10 118.10 20
SI 13:00:00 NR -12.00 118.16 20 1005 20 20 1005
SI 15:00:00 NR -11.98 117.96 20 20 1005
SI 18:00:00 NR -12.08 117.52 20 20 1005
SI 21:00:00 NR -12.27 117.10 22 20 1005
SI 22:00:00 NR -12.36 116.96 20 1005 23 20 1005
SI 1999-03-26 00:00:00 NR -12.55 116.69 25 20 1005
SI 01:00:00 NR -12.64 116.55 20 1005 25 20 1005
SI 03:00:00 NR -12.77 116.27 25 20 1005
SI 04:00:00 NR -12.84 116.12 20 1005 25 20 1005
SI 06:00:00 TS -12.91 115.85 25 20 1005 25 1002
SI 07:00:00 TS -12.95 115.69 20 1005 25 20 1005 25 1002
SI 09:00:00 TS -13.08 115.27 25 20 1005 25 1002
SI 10:00:00 TS -13.14 115.05 20 1005 25 20 1005 25 1002
SI 12:00:00 TS -13.25 114.60 25 20 1005 25 1002
SI 13:00:00 TS -13.30 114.37 20 1005 25 20 1005 25 1001
SI 15:00:00 TS -13.41 113.93 27 23 1005 27 1001
SI 16:00:00 TS -13.45 113.72 25 1005 28 25 1005 28 1000
SI 18:00:00 TS -13.55 113.36 30 25 1003 30 1000
SI 19:00:00 TS -13.60 113.21 25 1002 30 25 1002 30 1000
SI 21:00:00 TS -13.67 112.93 30 25 1002 30 1000
SI 22:00:00 TS -13.69 112.79 25 1002 30 25 1002 30 1000
SI 1999-03-27 00:00:00 TS -13.72 112.46 30 31 1000 30 1000
SI 01:00:00 TS -13.74 112.29 35 1000 30 35 1000 30 1000
SI 03:00:00 TS -13.81 112.00 30 35 996 30 1000
SI 04:00:00 TS -13.86 111.86 35 995 30 35 995 30 1000
SI 06:00:00 TS -13.98 111.55 30 38 995 30 1000
SI 07:00:00 TS -14.05 111.40 40 995 30 40 995 30 999
SI 09:00:00 TS -14.15 111.12 30 40 991 32 999
SI 10:00:00 TS -14.19 110.96 40 990 30 40 990 33 998
SI 12:00:00 TS -14.29 110.57 30 40 990 35 998
SI 13:00:00 TS -14.34 110.38 40 990 30 40 990 35 998
SI 15:00:00 TS -14.43 110.06 32 46 990 35 998
SI 16:00:00 TS -14.47 109.91 50 990 33 50 990 35 998
SI 18:00:00 TS -14.56 109.61 35 50 986 35 998
SI 19:00:00 TS -14.61 109.45 50 985 35 50 985 35 997
SI 21:00:00 TS -14.73 109.11 37 50 985 35 997
SI 22:00:00 TS -14.79 108.95 50 985 38 50 985 35 997
SI 1999-03-28 00:00:00 TS -14.86 108.74 40 50 985 35 997
SI 01:00:00 TS -14.89 108.62 50 985 40 50 985 35 996
SI 03:00:00 TS -14.99 108.23 40 50 985 37 995
SI 04:00:00 TS -15.04 108.03 50 985 40 50 985 38 994
SI 06:00:00 TS -15.14 107.73 40 50 985 40 994
SI 07:00:00 TS -15.22 107.59 50 985 40 50 985 40 994
SI 09:00:00 TS -15.43 107.24 42 50 985 40 994
SI 10:00:00 TS -15.53 107.06 50 985 43 50 985 40 994
SI 12:00:00 TS -15.66 106.77 45 53 985 40 995
SI 13:00:00 TS -15.68 106.65 55 985 46 55 985 41 993
SI 15:00:00 TS -15.68 106.41 50 61 981 45 991
SI 16:00:00 TS -15.68 106.29 65 980 51 65 980 46 990
SI 18:00:00 TS -15.69 106.01 55 65 973 50 988
SI 19:00:00 TS -15.72 105.85 65 970 56 65 970 51 986
SI 21:00:00 TS -15.76 105.48 60 68 970 55 984
SI 22:00:00 TS -15.79 105.27 70 970 61 70 970 56 982
SI 1999-03-29 00:00:00 TS -15.83 104.83 65 73 966 60 980
SI 01:00:00 TS -15.84 104.58 75 965 66 75 965 61 979
SI 03:00:00 TS -15.88 103.99 70 78 961 65 977
SI 04:00:00 TS -15.90 103.69 80 960 71 80 960 66 976
SI 06:00:00 TS -15.98 103.15 75 80 960 70 975
SI 07:00:00 TS -16.03 102.92 80 960 75 80 960 70 974
SI 09:00:00 TS -16.11 102.52 77 83 956 72 972
SI 10:00:00 TS -16.17 102.32 85 955 78 85 955 73 971
SI 12:00:00 TS -16.33 101.89 80 88 951 75 970
SI 13:00:00 TS -16.42 101.65 90 950 83 90 950 78 967
SI 15:00:00 TS -16.60 101.16 90 93 946 85 962
SI 16:00:00 TS -16.67 100.92 95 945 93 95 945 88 959
SI 18:00:00 TS -16.77 100.42 100 95 941 95 955
SI 19:00:00 TS -16.79 100.20 95 940 102 95 940 95 954
SI 21:00:00 TS -16.86 99.80 107 95 940 97 952
SI 22:00:00 TS -16.89 99.61 95 940 110 95 940 98 951
SI 1999-03-30 00:00:00 TS -16.93 99.19 115 70 955 95 940 100 950
SI 01:00:00 TS -16.94 98.96 95 940 115 71 953 95 940 101 948
SI 03:00:00 TS -16.96 98.49 115 75 950 98 936 105 945
SI 04:00:00 TS -16.97 98.25 100 935 115 76 948 100 935 106 943
SI 06:00:00 TS -16.99 97.76 115 80 945 100 931 110 940
SI 07:00:00 TS -17.01 97.52 100 930 115 81 942 100 930 113 936
SI 09:00:00 TS -17.08 97.06 115 85 937 100 930 120 930
SI 10:00:00 TS -17.10 96.83 100 930 115 86 934 100 930 123 926
SI 12:00:00 TS -17.13 96.35 115 90 930 100 930 130 920
SI 13:00:00 TS -17.13 96.11 100 930 116 90 930 100 930 130 920
SI 15:00:00 TS -17.17 95.67 120 90 930 100 930 130 920
SI 16:00:00 TS -17.18 95.46 100 930 121 90 930 100 930 130 920
SI 18:00:00 TS -17.20 95.08 125 90 930 100 930 130 920
SI 19:00:00 TS -17.21 94.90 100 930 125 90 929 100 930 130 920
SI 21:00:00 TS -17.23 94.50 125 92 927 103 930 130 920
SI 22:00:00 TS -17.25 94.31 105 930 125 93 926 105 930 130 920
SI 1999-03-31 00:00:00 TS -17.31 93.94 125 95 925 108 926 130 920
SI 01:00:00 TS -17.34 93.76 110 925 125 95 925 110 925 130 920
SI 03:00:00 TS -17.37 93.39 125 95 925 110 921 130 920
SI 04:00:00 TS -17.39 93.21 110 920 125 95 925 110 920 130 920
SI 06:00:00 TS -17.44 92.85 125 95 925 110 920 130 920
SI 07:00:00 TS -17.47 92.67 110 920 127 96 923 110 920 130 920
SI 09:00:00 TS -17.54 92.34 132 100 920 110 920 130 920
SI 10:00:00 TS -17.57 92.19 110 920 135 101 918 110 920 130 920
SI 12:00:00 TS -17.60 91.91 140 105 915 110 920 130 920
SI 13:00:00 TS -17.60 91.77 110 920 140 105 915 110 920 130 919
SI 15:00:00 TS -17.58 91.46 140 105 915 110 920 132 917
SI 16:00:00 TS -17.57 91.32 110 920 140 105 915 110 920 133 916
SI 18:00:00 TS -17.53 91.11 140 105 915 110 920 135 915
SI 19:00:00 TS -17.52 91.01 110 920 139 105 915 110 920 135 915
SI 21:00:00 TS -17.53 90.78 137 105 915 110 920 135 915
SI 22:00:00 TS -17.54 90.67 110 920 136 105 915 110 920 135 915
SI 1999-04-01 00:00:00 TS -17.55 90.45 135 105 915 103 920 135 915
SI 01:00:00 TS -17.55 90.35 100 920 133 104 915 100 920 133 916
SI 03:00:00 TS -17.58 90.17 130 102 917 96 926 130 920
SI 04:00:00 TS -17.60 90.08 95 930 128 101 918 95 930 128 921
SI 06:00:00 TS -17.66 89.86 100 920 125 100 920 85 936 125 925
SI 07:00:00 TS -17.69 89.75 125 99 920 80 940 125 925
SI 09:00:00 TS -17.76 89.52 125 97 922 76 949 125 925
SI 10:00:00 TS -17.79 89.41 125 96 923 75 955 125 925
SI 12:00:00 TS -17.83 89.17 95 925 125 95 925 125 925
SI 15:00:00 TS -17.89 88.81 120 90 932 117 932
SI 18:00:00 TS -17.93 88.43 85 940 115 85 940 110 940
SI 21:00:00 TS -17.97 88.03 107 77 947 102 947
SI 1999-04-02 00:00:00 TS -18.00 87.57 70 955 100 70 955 95 955
SI 03:00:00 TS -17.99 87.00 90 62 963 82 963
SI 06:00:00 TS -18.00 86.40 55 972 80 55 972 70 972
SI 09:00:00 TS -18.08 85.86 72 54 973 70 973
SI 12:00:00 TS -18.17 85.30 53 975 65 53 975 70 975
SI 15:00:00 TS -18.21 84.66 70 53 975 70 975
SI 18:00:00 TS -18.20 84.00 53 975 75 53 975 70 975
SI 21:00:00 TS -18.14 83.38 70 51 976 67 976
SI 1999-04-03 00:00:00 TS -18.07 82.80 50 978 65 50 978 65 978
SI 03:00:00 TS -18.01 82.25 65 50 978 65 978
SI 06:00:00 TS -17.97 81.70 50 978 65 50 978 65 978
SI 09:00:00 TS -17.95 81.11 62 50 978 65 978
SI 12:00:00 TS -17.97 80.50 50 978 60 50 978 65 978
SI 15:00:00 TS -18.00 79.89 60 49 979 62 979
SI 18:00:00 TS -18.07 79.23 48 980 60 48 980 60 980
SI 21:00:00 TS -18.15 78.51 57 46 981 57 981
SI 1999-04-04 00:00:00 TS -18.23 77.77 45 983 55 45 983 55 983
SI 03:00:00 TS -18.29 77.06 55 42 985 52 985
SI 06:00:00 TS -18.37 76.33 40 987 55 40 987 50 987
SI 09:00:00 TS -18.50 75.51 52 38 988 47 988
SI 12:00:00 TS -18.63 74.73 37 990 50 37 990 45 990
SI 15:00:00 TS -18.70 74.15 50 36 991 45 991
SI 18:00:00 TS -18.77 73.60 35 992 50 35 992 45 992
SI 21:00:00 TS -18.87 72.94 52 35 992 45 992
SI 1999-04-05 00:00:00 TS -18.97 72.27 35 992 55 35 992 45 992
SI 03:00:00 TS -19.01 71.67 55 32 993 42 993
SI 06:00:00 TS -19.00 71.07 30 995 55 30 995 40 995
SI 09:00:00 TS -18.91 70.37 50 30 995 40 995
SI 12:00:00 TS -18.80 69.73 30 995 45 30 995 40 995
SI 15:00:00 TS -18.72 69.29 42 30 996 37 996
SI 18:00:00 TS -18.67 68.90 30 997 40 30 997 35 997
SI 21:00:00 TS -18.66 68.42 40 30 997 35 997
SI 1999-04-06 00:00:00 TS -18.70 67.90 30 997 40 30 997 35 997
SI 03:00:00 TS -18.78 67.37 37 30 997 35 997
SI 06:00:00 TS -18.83 66.87 30 997 35 30 997 35 997
SI 09:00:00 TS -18.78 66.42 35 29 997 35 997
SI 12:00:00 TS -18.73 66.00 28 998 35 28 998 35 998
SI 15:00:00 TS -18.78 65.60 32 28 998 35 998
SI 18:00:00 TS -18.90 65.20 28 998 30 28 998 35 998
SI 21:00:00 TS -19.09 64.75 30 26 999 32 999
SI 1999-04-07 00:00:00 TS -19.33 64.30 25 1000 30 25 1000 30 1000
SI 03:00:00 TS -19.64 63.93 30 25 1000 30 1000
SI 06:00:00 TS -19.94 63.59 25 1000 30 25 1000 30 1000
SI 09:00:00 TS -20.05 63.16 30 25 1000 30 1000
SI 12:00:00 TS -20.14 62.77 25 1000 30 25 1000 30 1000
SI 15:00:00 TS -20.39 62.53 25 1001 27 1001
SI 18:00:00 TS -20.70 62.40 25 1002 25 1002 25 1002
SI 21:00:00 TS -21.15 62.35 25 1002 25 1002
SI 1999-04-08 00:00:00 TS -21.60 62.40 25 1002 25 1002 25 1002
SI 03:00:00 TS -21.90 62.41 25 1002 25 1002
SI 06:00:00 TS -22.10 62.60 25 1002 25 1002 25 1002
SI 09:00:00 TS -22.24 63.11 25 1002 25 1002
SI 12:00:00 TS -22.30 63.80 25 1002 25 1002 25 1002
SI 15:00:00 TS -22.31 64.46 22 1003 22 1003
SI 18:00:00 TS -22.30 65.20 20 1004 20 1004 20 1004
SI 21:00:00 TS -22.28 66.13 20 1004 20 1004
SI 1999-04-09 00:00:00 TS -22.30 66.90 20 1004 20 1004 20 1004
SI 03:00:00 TS -22.47 67.20 20 1004 20 1004
SI 06:00:00 TS -22.60 67.30 20 1005 20 1005 20 1005
SI 09:00:00 TS -22.48 67.54 1005 20 1005
SI 12:00:00 TS -22.30 67.70 1005 1005 20 1005
SI 15:00:00 TS -22.23 67.69 1006 17 1006
SI 18:00:00 TS -22.20 67.60 1007 1007 15 1007
SI 21:00:00 TS -22.13 67.52 1007 12 1007
SI 1999-04-10 00:00:00 TS -22.10 67.40 1008 1008 10 1008
SI 03:00:00 TS -22.13 67.22 1009 10 1009
SI 06:00:00 TS -22.20 67.00 1010 1010 10 1010
SI 09:00:00 TS -22.28 66.77 1010 10 1010
SI 12:00:00 TS -22.30 66.50 1010 1010 10 1010
SI 15:00:00 TS -22.19 66.17 1011 10 1011
SI 18:00:00 TS -22.00 65.80 1012 1012 10 1012

Source Information

Agency Information
USA bsh311999.txt
TOKYO
CMA
HKO
NEWDELHI
REUNION WMO-Best-Tracks.txt:Line=18600:evrina
BOM IDCKMSTM0S.csv:Line=20279:FREDERIC
NADI
WELLINGTON
DS824
TD9636
TD9635
NEUMANN tracks.sh:Storm=1172:FREDERIC/EVR:INA:BSH311999
MLC

All available IBTrACS Data

SEASON BASIN SUBBASIN ISO_TIME_________ NATURE LAT LON WMO WIND WMO PRES WMO AGENCY DIST2LAND LANDFALL IFLAG USA AGENCY USA ATCF_ID USA LAT USA LON USA WIND USA SSHS REUNION LAT REUNION LON REUNION TYPE REUNION WIND REUNION PRES REUNION TNUM REUNION CI BOM LAT BOM LON BOM TYPE BOM WIND BOM PRES BOM CI BOM ROCI BOM EYE BOM POS_METHOD BOM PRES_METHOD NEUMANN LAT NEUMANN LON NEUMANN CLASS NEUMANN WIND NEUMANN PRES STORM SPEED STORM DIR
Year degrees north degrees east kts mb km km degrees north degrees east kts 1 degrees north degrees east kts mb 1 1 degrees north degrees east kts mb 1 nmile nmile degrees north degrees east kts mb kts degrees
1999 SI WA 1999-03-25 00:00:00 NR -11.90 119.30 214 214 O_____________ jtwc_sh SH311999 -11.90 119.30 15 -1 5 257
1999 SI WA 03:00:00 NR -11.95 119.07 234 234 P_____________ SH311999 -11.95 119.07 15 -1 5 258
1999 SI WA 06:00:00 NR -12.00 118.80 253 253 O_____________ jtwc_sh SH311999 -12.00 118.80 15 -1 6 261
1999 SI WA 09:00:00 NR -12.04 118.48 265 265 P_____________ SH311999 -12.04 118.48 17 -1 7 262
1999 SI WA 12:00:00 NR -12.10 118.10 290 275 O_____________ jtwc_sh SH311999 -12.10 118.10 20 -1 5 279
1999 SI WA 13:00:00 NR -12.00 118.16 20 1005 bom 275 275 P_____O_______ SH311999 -12.12 117.96 20 -1 -11.50 119.00 20 20 1005 1.00 161 3 5 4 310
1999 SI WA 15:00:00 NR -11.98 117.96 284 284 P_____P_______ SH311999 -12.17 117.65 20 -1 -11.60 118.57 20 20 1005 161 8 263
1999 SI WA 18:00:00 NR -12.08 117.52 320 320 O_____P_______ jtwc_sh SH311999 -12.30 117.20 20 -1 -11.78 117.94 20 20 1005 161 9 251
1999 SI WA 21:00:00 NR -12.27 117.10 358 358 P_____P_______ SH311999 -12.53 116.83 22 -1 -12.01 117.37 20 20 1005 161 9 242
1999 SI WA 22:00:00 NR -12.36 116.96 20 1005 bom 369 369 P_____O_______ SH311999 -12.62 116.71 23 -1 -12.10 117.20 20 20 1005 1.00 161 3 5 10 235
1999 SI WA 1999-03-26 00:00:00 NR -12.55 116.69 393 393 O_____P_______ jtwc_sh SH311999 -12.80 116.50 25 -1 -12.31 116.87 20 20 1005 161 10 235
1999 SI WA 01:00:00 NR -12.64 116.55 20 1005 bom 394 395 P_____O_______ SH311999 -12.87 116.41 25 -1 -12.40 116.70 20 20 1005 1.00 161 3 5 9 242
1999 SI WA 03:00:00 NR -12.77 116.27 421 421 P_____P_______ SH311999 -13.01 116.24 25 -1 -12.54 116.30 20 20 1005 161 9 245
1999 SI WA 04:00:00 NR -12.84 116.12 20 1005 bom 425 425 P_____O_______ SH311999 -13.07 116.14 25 -1 -12.60 116.10 20 20 1005 1.00 161 3 5 9 251
1999 SI WA 06:00:00 TS -12.91 115.85 440 440 O_____P_____O_ jtwc_sh SH311999 -13.20 115.90 25 -1 -12.73 115.77 20 20 1005 161 -12.50 116.00 TC 25 1002 9 255
1999 SI WA 07:00:00 TS -12.95 115.69 20 1005 bom 454 454 P_____O_____P_ SH311999 -13.27 115.74 25 -1 -12.80 115.60 20 20 1005 1.00 161 3 5 -12.62 115.75 TC 25 1002 12 253
1999 SI WA 09:00:00 TS -13.08 115.27 474 474 P_____P_____P_ SH311999 -13.42 115.36 25 -1 -12.94 115.21 20 20 1005 161 -12.84 115.24 TC 25 1002 13 253
1999 SI WA 10:00:00 TS -13.14 115.05 20 1005 bom 481 481 P_____O_____P_ SH311999 -13.48 115.15 25 -1 -13.00 115.00 20 20 1005 1.00 161 3 5 -12.93 114.99 TC 25 1002 14 255
1999 SI WA 12:00:00 TS -13.25 114.60 503 503 O_____P_____O_ jtwc_sh SH311999 -13.60 114.70 25 -1 -13.06 114.60 20 20 1005 161 -13.10 114.50 TC 25 1002 14 256
1999 SI WA 13:00:00 TS -13.30 114.37 20 1005 bom 504 505 P_____O_____P_ SH311999 -13.65 114.46 25 -1 -13.10 114.40 20 20 1005 1.00 161 3 5 -13.16 114.26 TC 25 1001 13 257
1999 SI WA 15:00:00 TS -13.41 113.93 520 520 P_____P_____P_ SH311999 -13.73 113.98 27 -1 -13.23 113.99 20 23 1005 161 -13.26 113.81 TC 27 1001 13 257
1999 SI WA 16:00:00 TS -13.45 113.72 25 1005 bom 535 535 P_____O_____P_ SH311999 -13.76 113.74 28 -1 -13.30 113.80 20 25 1005 1.50 161 3 5 -13.30 113.61 TC 28 1000 11 255
1999 SI WA 18:00:00 TS -13.55 113.36 542 542 O_____P_____O_ jtwc_sh SH311999 -13.80 113.30 30 -1 -13.45 113.48 20 25 1003 161 -13.40 113.30 TC 30 1000 10 254
1999 SI WA 19:00:00 TS -13.60 113.21 25 1002 bom 558 558 P_____O_____P_ SH311999 -13.81 113.12 30 -1 -13.50 113.30 20 25 1002 1.50 161 3 5 -13.49 113.21 TC 30 1000 9 255
1999 SI WA 21:00:00 TS -13.67 112.93 579 579 P_____P_____P_ SH311999 -13.80 112.81 30 -1 -13.51 112.86 20 25 1002 161 -13.69 113.11 TC 30 1000 8 257
1999 SI WA 22:00:00 TS -13.69 112.79 25 1002 bom 581 581 P_____O_____P_ SH311999 -13.79 112.67 30 -1 -13.50 112.60 20 25 1002 2.00 161 3 5 -13.78 113.08 TC 30 1000 9 263
1999 SI WA 1999-03-27 00:00:00 TS -13.72 112.46 588 588 O_____P_____O_ jtwc_sh SH311999 -13.80 112.40 30 -1 -13.47 111.98 20 31 1000 161 -13.90 113.00 TC 30 1000 10 264
1999 SI WA 01:00:00 TS -13.74 112.29 35 1000 bom 594 594 P_____O_____P_ SH311999 -13.82 112.25 30 -1 -13.50 111.70 30 35 1000 3.00 161 3 5 -13.90 112.92 TC 30 1000 9 259
1999 SI WA 03:00:00 TS -13.81 112.00 605 605 P_____P_____P_ SH311999 -13.88 111.94 30 -1 -13.74 111.34 30 35 996 161 -13.82 112.71 TC 30 1000 9 253
1999 SI WA 04:00:00 TS -13.86 111.86 35 995 bom 616 615 P_____O_____P_ SH311999 -13.91 111.79 30 -1 -13.90 111.20 30 35 995 3.00 161 3 5 -13.77 112.59 TC 30 1000 9 248
1999 SI WA 06:00:00 TS -13.98 111.55 627 627 O_____P_____O_ jtwc_sh SH311999 -14.00 111.50 30 -1 -14.25 110.86 30 38 995 161 -13.70 112.30 TC 30 1000 10 247
1999 SI WA 07:00:00 TS -14.05 111.40 40 995 bom 628 639 P_____O_____P_ SH311999 -14.04 111.36 30 -1 -14.40 110.70 30 40 995 3.00 161 3 5 -13.71 112.14 TC 30 999 9 249
1999 SI WA 09:00:00 TS -14.15 111.12 641 641 P_____P_____P_ SH311999 -14.13 111.10 30 -1 -14.56 110.45 30 40 991 161 -13.75 111.79 TC 32 999 9 251
1999 SI WA 10:00:00 TS -14.19 110.96 40 990 bom 654 655 P_____O_____P_ SH311999 -14.19 110.97 30 -1 -14.60 110.30 30 40 990 3.00 161 3 5 -13.80 111.60 TC 33 998 11 255
1999 SI WA 12:00:00 TS -14.29 110.57 671 671 O_____P_____O_ jtwc_sh SH311999 -14.30 110.70 30 -1 -14.68 109.82 30 40 990 161 -13.90 111.20 TC 35 998 12 255
1999 SI WA 13:00:00 TS -14.34 110.38 40 990 bom 675 675 P_____O_____P_ SH311999 -14.37 110.56 30 -1 -14.70 109.60 30 40 990 3.00 161 3 5 -13.95 110.99 TC 35 998 10 255
1999 SI WA 15:00:00 TS -14.43 110.06 693 693 P_____P_____P_ SH311999 -14.51 110.27 32 -1 -14.71 109.38 30 46 990 161 -14.07 110.54 TC 35 998 10 254
1999 SI WA 16:00:00 TS -14.47 109.91 50 990 bom 708 708 P_____O_____P_ SH311999 -14.58 110.11 33 -1 -14.70 109.30 30 50 990 3.50 161 3 5 -14.14 110.32 TC 35 998 9 253
1999 SI WA 18:00:00 TS -14.56 109.61 726 726 O_____P_____O_ jtwc_sh SH311999 -14.70 109.80 35 0 -14.69 109.12 30 50 986 161 -14.30 109.90 TC 35 998 9 252
1999 SI WA 19:00:00 TS -14.61 109.45 50 985 bom 728 730 P_____O_____P_ SH311999 -14.74 109.64 35 0 -14.70 109.00 30 50 985 3.50 161 3 5 -14.40 109.71 TC 35 997 10 251
1999 SI WA 21:00:00 TS -14.73 109.11 748 748 P_____P_____P_ SH311999 -14.81 109.32 37 0 -14.77 108.64 30 50 985 196 -14.62 109.37 TC 35 997 10 250
1999 SI WA 22:00:00 TS -14.79 108.95 50 985 bom 762 764 P_____O_____P_ SH311999 -14.84 109.15 38 0 -14.80 108.50 30 50 985 3.50 215 3 5 -14.73 109.21 TC 35 997 8 250
1999 SI WA 1999-03-28 00:00:00 TS -14.86 108.74 781 781 O_____P_____O_ jtwc_sh SH311999 -14.90 108.80 40 0 -14.78 108.53 30 50 985 215 -14.90 108.90 TC 35 997 7 253
1999 SI WA 01:00:00 TS -14.89 108.62 50 985 bom 784 784 P_____O_____P_ SH311999 -14.95 108.60 40 0 -14.80 108.50 30 50 985 3.50 215 3 5 -14.92 108.75 TC 35 996 10 255
1999 SI WA 03:00:00 TS -14.99 108.23 806 806 P_____P_____P_ SH311999 -15.06 108.19 40 0 -14.99 108.04 30 50 985 215 -14.92 108.45 TC 37 995 12 255
1999 SI WA 04:00:00 TS -15.04 108.03 50 985 bom 807 818 P_____O_____P_ SH311999 -15.11 107.99 40 0 -15.10 107.80 30 50 985 3.50 215 3 5 -14.92 108.30 TC 38 994 10 252
1999 SI WA 06:00:00 TS -15.14 107.73 821 821 O_____P_____O_ jtwc_sh SH311999 -15.20 107.60 40 0 -15.23 107.60 30 50 985 215 -15.00 108.00 TC 40 994 9 247
1999 SI WA 07:00:00 TS -15.22 107.59 50 985 bom 833 833 P_____O_____P_ SH311999 -15.23 107.43 40 0 -15.30 107.50 30 50 985 3.50 215 3 5 -15.15 107.83 TC 40 994 11 239
1999 SI WA 09:00:00 TS -15.43 107.24 861 861 P_____P_____P_ SH311999 -15.26 107.13 42 0 -15.51 107.10 30 50 985 215 -15.52 107.48 TC 40 994 12 239
1999 SI WA 10:00:00 TS -15.53 107.06 50 985 bom 873 875 P_____O_____P_ SH311999 -15.27 106.98 43 0 -15.60 106.90 30 50 985 3.50 215 3 5 -15.71 107.31 TC 40 994 10 242
1999 SI WA 12:00:00 TS -15.66 106.77 901 901 O_____P_____O_ jtwc_sh SH311999 -15.30 106.70 45 0 -15.69 106.62 30 53 985 215 -16.00 107.00 TC 40 995 9 248
1999 SI WA 13:00:00 TS -15.68 106.65 55 985 bom 903 905 P_____O_____P_ SH311999 -15.33 106.57 46 0 -15.70 106.50 30 55 985 4.00 215 3 5 -16.02 106.89 TC 41 993 7 266
1999 SI WA 15:00:00 TS -15.68 106.41 908 908 P_____P_____P_ SH311999 -15.39 106.30 50 0 -15.70 106.23 30 61 981 215 -15.96 106.71 TC 45 991 7 271
1999 SI WA 16:00:00 TS -15.68 106.29 65 980 bom 910 910 P_____O_____P_ SH311999 -15.43 106.16 51 0 -15.70 106.10 40 65 980 4.50 215 3 5 -15.90 106.62 TC 46 990 8 269
1999 SI WA 18:00:00 TS -15.69 106.01 917 917 O_____P_____O_ jtwc_sh SH311999 -15.50 105.80 55 0 -15.77 105.83 40 65 973 215 -15.80 106.40 TC 50 988 9 265
1999 SI WA 19:00:00 TS -15.72 105.85 65 970 bom 921 921 P_____O_____P_ SH311999 -15.53 105.57 56 0 -15.80 105.70 40 65 970 4.50 215 3 5 -15.82 106.27 TC 51 986 10 262
1999 SI WA 21:00:00 TS -15.76 105.48 941 941 P_____P_____P_ SH311999 -15.59 105.04 60 0 -15.81 105.44 40 68 970 215 -15.90 105.95 TC 55 984 11 263
1999 SI WA 22:00:00 TS -15.79 105.27 70 970 bom 947 949 P_____O_____P_ SH311999 -15.62 104.76 61 0 -15.80 105.30 40 70 970 4.50 215 3 5 -15.94 105.76 TC 56 982 12 264
1999 SI WA 1999-03-29 00:00:00 TS -15.83 104.83 956 956 O_____P_____O_ jtwc_sh SH311999 -15.70 104.20 65 1 -15.79 105.00 40 73 966 250 -16.00 105.30 TC 60 980 13 265
1999 SI WA 01:00:00 TS -15.84 104.58 75 965 bom 960 963 P_____O_____P_ SH311999 -15.75 103.94 66 1 -15.80 104.80 40 75 965 4.50 269 3 5 -15.98 105.01 TC 61 979 16 267
1999 SI WA 03:00:00 TS -15.88 103.99 987 987 P_____P_____P_ SH311999 -15.88 103.42 70 1 -15.85 104.21 40 78 961 269 -15.90 104.35 TC 65 977 17 266
1999 SI WA 04:00:00 TS -15.90 103.69 80 960 bom 996 999 P_____O_____P_ SH311999 -15.95 103.17 71 1 -15.90 103.90 40 80 960 5.00 269 3 5 -15.86 104.01 TC 66 976 16 263
1999 SI WA 06:00:00 TS -15.98 103.15 1024 1024 O_____P_____O_ jtwc_sh SH311999 -16.10 102.70 75 1 -16.04 103.35 40 80 960 269 -15.80 103.40 TC 70 975 15 260
1999 SI WA 07:00:00 TS -16.03 102.92 80 960 bom 1035 1035 P_____O_____P_ SH311999 -16.18 102.49 75 1 -16.10 103.10 40 80 960 5.00 269 3 5 -15.80 103.18 TC 70 974 13 257
1999 SI WA 09:00:00 TS -16.11 102.52 1062 1062 P_____P_____P_ SH311999 -16.36 102.08 77 1 -16.16 102.64 40 83 956 269 -15.83 102.83 TC 72 972 12 256
1999 SI WA 10:00:00 TS -16.17 102.32 85 955 bom 1081 1081 P_____O_____P_ SH311999 -16.44 101.89 78 1 -16.20 102.40 40 85 955 5.00 269 3 5 -15.87 102.66 TC 73 971 13 250
1999 SI WA 12:00:00 TS -16.33 101.89 1110 1110 O_____P_____O_ jtwc_sh SH311999 -16.60 101.50 80 1 -16.40 101.86 40 88 951 269 -16.00 102.30 TC 75 970 14 249
1999 SI WA 13:00:00 TS -16.42 101.65 90 950 bom 1135 1135 P_____O_____P_ SH311999 -16.67 101.29 83 2 -16.50 101.60 40 90 950 5.50 269 3 5 -16.10 102.05 TC 78 967 15 249
1999 SI WA 15:00:00 TS -16.60 101.16 1175 1175 P_____P_____P_ SH311999 -16.78 100.85 90 2 -16.65 101.14 40 93 946 269 -16.36 101.51 TC 85 962 15 250
1999 SI WA 16:00:00 TS -16.67 100.92 95 945 bom 1200 1200 P_____O_____P_ SH311999 -16.83 100.63 93 2 -16.70 100.90 40 95 945 5.50 269 3 5 -16.49 101.23 TC 88 959 15 257
1999 SI WA 18:00:00 TS -16.77 100.42 1235 1235 O_____P_____O_ jtwc_sh SH311999 -16.90 100.20 100 3 -16.70 100.36 40 95 941 269 -16.70 100.70 TC 95 955 14 260
1999 SI WA 19:00:00 TS -16.79 100.20 95 940 bom 1244 1244 P_____O_____P_ SH311999 -16.93 100.00 102 3 -16.70 100.10 40 95 940 5.50 269 8 3 5 -16.75 100.48 TC 95 954 12 261
1999 SI WA 21:00:00 TS -16.86 99.80 1274 1274 P_____P_____P_ SH311999 -16.96 99.62 107 3 -16.83 99.70 40 95 940 269 -16.79 100.09 TC 97 952 11 260
1999 SI WA 22:00:00 TS -16.89 99.61 95 940 bom 1284 1284 P_____O_____P_ SH311999 -16.98 99.43 110 3 -16.90 99.50 40 95 940 5.50 269 8 3 5 -16.79 99.90 TC 98 951 12 264
1999 SI WA 1999-03-30 00:00:00 TS -16.93 99.19 1305 1305 O____OP_____O_ jtwc_sh SH311999 -17.00 99.00 115 4 -16.90 99.30 4 70 955 5.00 5.00 -16.99 99.03 40 95 940 269 -16.80 99.50 TC 100 950 13 265
1999 SI WA 01:00:00 TS -16.94 98.96 95 940 bom 1316 1322 P____PO_____P_ SH311999 -17.02 98.75 115 4 -16.92 99.06 4 71 953 -17.00 98.80 40 95 940 5.50 269 8 3 5 -16.83 99.26 TC 101 948 13 267
1999 SI WA 03:00:00 TS -16.96 98.49 1354 1354 P____PP_____P_ SH311999 -17.06 98.22 115 4 -16.95 98.59 4 75 950 -16.94 98.40 40 98 936 269 -16.89 98.77 TC 105 945 14 268
1999 SI WA 04:00:00 TS -16.97 98.25 100 935 bom 1366 1372 P____PO_____P_ SH311999 -17.07 97.94 115 4 -16.97 98.36 4 76 948 -16.90 98.20 40 100 935 6.00 269 8 3 5 -16.93 98.51 TC 106 943 14 267
1999 SI WA 06:00:00 TS -16.99 97.76 1397 1397 O____OP_____O_ jtwc_sh SH311999 -17.10 97.40 115 4 -17.00 97.90 4 80 945 5.50 5.50 -16.88 97.74 40 100 931 269 -17.00 98.00 TC 110 940 14 266
1999 SI WA 07:00:00 TS -17.01 97.52 100 930 bom 1416 1416 P____PO_____P_ SH311999 -17.10 97.16 115 4 -17.02 97.68 4 81 942 -16.90 97.50 40 100 930 6.00 269 8 3 5 -17.04 97.76 TC 113 936 13 263
1999 SI WA 09:00:00 TS -17.08 97.06 1450 1450 P____PP_____P_ SH311999 -17.09 96.68 115 4 -17.05 97.24 4 85 937 -17.04 97.05 40 100 930 269 -17.12 97.28 TC 120 930 13 262
1999 SI WA 10:00:00 TS -17.10 96.83 100 930 bom 1471 1471 P____PO_____P_ SH311999 -17.09 96.46 115 4 -17.07 97.03 4 86 934 -17.10 96.80 40 100 930 6.00 269 8 3 5 -17.16 97.05 TC 123 926 14 266
1999 SI WA 12:00:00 TS -17.13 96.35 1505 1505 O____OP_____O_ jtwc_sh SH311999 -17.10 96.00 115 4 -17.10 96.60 4 90 930 6.00 6.00 -17.10 96.19 40 100 930 269 -17.20 96.60 TC 130 920 14 267
1999 SI WA 13:00:00 TS -17.13 96.11 100 930 bom 1519 1519 P____PO_____P_ SH311999 -17.13 95.76 116 4 -17.11 96.38 4 90 930 -17.10 95.90 40 100 930 6.00 269 8 3 5 -17.19 96.39 TC 130 920 13 266
1999 SI WA 15:00:00 TS -17.17 95.67 1556 1556 P____PP_____P_ SH311999 -17.20 95.27 120 4 -17.14 95.93 4 90 930 -17.17 95.47 40 100 930 269 -17.16 96.00 TC 130 920 12 265
1999 SI WA 16:00:00 TS -17.18 95.46 100 930 bom 1570 1578 P____PO_____P_ SH311999 -17.24 95.04 121 4 -17.16 95.72 4 90 930 -17.20 95.30 40 100 930 6.00 269 8 3 5 -17.13 95.80 TC 130 920 11 266
1999 SI WA 18:00:00 TS -17.20 95.08 1600 1600 O____OP_____O_ jtwc_sh SH311999 -17.30 94.60 125 4 -17.20 95.30 4 90 930 6.00 6.00 -17.21 95.04 40 100 930 269 -17.10 95.40 TC 130 920 11 267
1999 SI WA 19:00:00 TS -17.21 94.90 100 930 bom 1615 1615 P____PO_____P_ SH311999 -17.31 94.41 125 4 -17.23 95.11 4 90 929 -17.20 94.90 40 100 930 6.00 269 8 3 5 -17.10 95.17 TC 130 920 11 267
1999 SI WA 21:00:00 TS -17.23 94.50 1645 1645 P____PP_____P_ SH311999 -17.31 94.08 125 4 -17.30 94.74 4 92 927 -17.18 94.50 40 103 930 269 -17.13 94.69 TC 130 920 11 266
1999 SI WA 22:00:00 TS -17.25 94.31 105 930 bom 1661 1668 P____PO_____P_ SH311999 -17.30 93.92 125 4 -17.34 94.56 4 93 926 -17.20 94.30 40 105 930 6.00 269 8 3 5 -17.15 94.45 TC 130 920 11 262
1999 SI WA 1999-03-31 00:00:00 TS -17.31 93.94 1699 1699 O____OP_____O_ jtwc_sh SH311999 -17.30 93.60 125 4 -17.40 94.20 4 95 925 6.00 6.00 -17.34 93.96 40 108 926 269 -17.20 94.00 TC 130 920 11 260
1999 SI WA 01:00:00 TS -17.34 93.76 110 925 bom 1707 1715 P____PO_____P_ SH311999 -17.31 93.41 125 4 -17.42 94.00 4 95 925 -17.40 93.80 40 110 925 6.50 269 8 3 5 -17.23 93.81 TC 130 920 11 263
1999 SI WA 03:00:00 TS -17.37 93.39 1746 1746 P____PP_____P_ SH311999 -17.34 93.04 125 4 -17.46 93.58 4 95 925 -17.40 93.47 40 110 921 269 -17.29 93.48 TC 130 920 10 265
1999 SI WA 04:00:00 TS -17.39 93.21 110 920 bom 1762 1762 P____PO_____P_ SH311999 -17.35 92.85 125 4 -17.47 93.38 4 95 925 -17.40 93.30 40 110 920 6.50 269 8 3 5 -17.33 93.32 TC 130 920 10 262
1999 SI WA 06:00:00 TS -17.44 92.85 1795 1795 O____OP_____O_ jtwc_sh SH311999 -17.40 92.50 125 4 -17.50 93.00 4 95 925 6.00 6.00 -17.46 92.90 40 110 920 269 -17.40 93.00 TC 130 920 10 261
1999 SI WA 07:00:00 TS -17.47 92.67 110 920 bom 1810 1818 P____PO_____P_ SH311999 -17.44 92.35 127 4 -17.52 92.83 4 96 923 -17.50 92.70 40 110 920 6.50 269 8 3 5 -17.44 92.81 TC 130 920 10 258
1999 SI WA 09:00:00 TS -17.54 92.34 1843 1843 P____PP_____P_ SH311999 -17.51 92.09 132 4 -17.56 92.52 4 100 920 -17.57 92.35 40 110 920 269 -17.52 92.41 TC 130 920 9 258
1999 SI WA 10:00:00 TS -17.57 92.19 110 920 bom 1858 1858 P____PO_____P_ SH311999 -17.55 91.96 135 4 -17.57 92.38 4 101 918 -17.60 92.20 40 110 920 6.50 269 8 3 5 -17.56 92.22 TC 130 920 8 262
1999 SI WA 12:00:00 TS -17.60 91.91 1883 1883 O____OP_____O_ jtwc_sh SH311999 -17.60 91.70 140 5 -17.60 92.10 4 105 915 6.50 6.50 -17.61 91.95 40 110 920 269 -17.60 91.90 TC 130 920 8 266
1999 SI WA 13:00:00 TS -17.60 91.77 110 920 bom 1891 1900 P____PO_____P_ SH311999 -17.60 91.55 140 5 -17.61 91.96 4 105 915 -17.60 91.80 40 110 920 6.50 269 8 3 5 -17.60 91.79 TC 130 919 9 272
1999 SI WA 15:00:00 TS -17.58 91.46 1916 1916 P____PP_____P_ SH311999 -17.56 91.24 140 5 -17.61 91.68 4 105 915 -17.61 91.31 40 110 920 269 -17.56 91.62 TC 132 917 9 274
1999 SI WA 16:00:00 TS -17.57 91.32 110 920 bom 1933 1933 P____PO_____P_ SH311999 -17.53 91.09 140 5 -17.61 91.55 4 105 915 -17.60 91.10 40 110 920 6.50 269 8 3 5 -17.54 91.55 TC 133 916 7 279
1999 SI WA 18:00:00 TS -17.53 91.11 1942 1942 O____OP_____O_ jtwc_sh SH311999 -17.50 90.80 140 5 -17.60 91.30 4 105 915 6.50 6.50 -17.53 90.95 40 110 920 269 -17.50 91.40 TC 135 915 6 279
1999 SI WA 19:00:00 TS -17.52 91.01 110 920 bom 1949 1949 P____PO_____P_ SH311999 -17.51 90.67 139 5 -17.60 91.17 4 105 915 -17.50 90.90 40 110 920 6.50 269 8 3 5 -17.49 91.29 TC 135 915 6 271
1999 SI WA 21:00:00 TS -17.53 90.78 1964 1964 P____PP_____P_ SH311999 -17.54 90.42 137 5 -17.59 90.93 4 105 915 -17.49 90.71 40 110 920 269 -17.49 91.06 TC 135 915 7 268
1999 SI WA 22:00:00 TS -17.54 90.67 110 920 bom 1971 1978 P____PO_____P_ SH311999 -17.56 90.31 136 4 -17.59 90.82 4 105 915 -17.50 90.60 40 110 920 6.50 269 8 3 5 -17.49 90.94 TC 135 915 6 267
1999 SI WA 1999-04-01 00:00:00 TS -17.55 90.45 1992 1992 O____OP_____O_ jtwc_sh SH311999 -17.60 90.10 135 4 -17.60 90.60 4 105 915 6.00 6.50 -17.49 90.39 40 103 920 269 -17.50 90.70 TC 135 915 6 266
1999 SI WA 01:00:00 TS -17.55 90.35 100 920 bom 2007 2007 P____PO_____P_ SH311999 -17.60 90.02 133 4 -17.61 90.49 4 104 915 -17.50 90.30 40 100 920 6.00 269 8 3 5 -17.51 90.58 TC 133 916 5 263
1999 SI WA 03:00:00 TS -17.58 90.17 2014 2014 P____PP_____P_ SH311999 -17.58 89.86 130 4 -17.64 90.29 4 102 917 -17.55 90.18 40 96 926 269 -17.53 90.34 TC 130 920 5 260
1999 SI WA 04:00:00 TS -17.60 90.08 95 930 bom 2021 2021 P____PO_____P_ SH311999 -17.58 89.79 128 4 -17.66 90.19 4 101 918 -17.60 90.10 40 95 930 5.50 269 8 3 5 -17.55 90.23 TC 128 921 6 255
1999 SI MM 06:00:00 TS -17.66 89.86 100 920 reunion 2044 2044 O____OP_____O_ jtwc_sh SH311999 -17.60 89.60 125 4 -17.70 90.00 4 100 920 4.50 6.50 -17.73 89.84 40 85 936 269 -17.60 90.00 TC 125 925 7 254
1999 SI MM 07:00:00 TS -17.69 89.75 2054 2054 P____PO_____P_ SH311999 -17.63 89.47 125 4 -17.72 89.90 4 99 920 -17.80 89.70 40 80 940 5.00 269 3 5 -17.63 89.90 TC 125 925 7 252
1999 SI MM 09:00:00 TS -17.76 89.52 2075 2075 P____PP_____P_ SH311999 -17.73 89.17 125 4 -17.76 89.71 4 97 922 -17.94 89.49 40 76 949 269 -17.71 89.70 TC 125 925 7 253
1999 SI MM 10:00:00 TS -17.79 89.41 2080 2080 P____PO_____P_ SH311999 -17.78 89.01 125 4 -17.77 89.61 4 96 923 -18.00 89.40 40 75 955 4.50 269 3 5 -17.74 89.60 TC 125 925 7 258
1999 SI MM 12:00:00 TS -17.83 89.17 95 925 reunion 2091 2091 O____O______O_ jtwc_sh SH311999 -17.90 88.70 125 4 -17.80 89.40 4 95 925 4.50 6.00 40 -17.80 89.40 TC 125 925 7 259
1999 SI MM 15:00:00 TS -17.89 88.81 2123 2123 P____P______P_ SH311999 -18.07 88.31 120 4 -17.80 89.06 4 90 932 -17.81 89.06 TC 117 932 7 262
1999 SI MM 18:00:00 TS -17.93 88.43 85 940 reunion 2146 2146 O____O______O_ jtwc_sh SH311999 -18.20 87.90 115 4 -17.80 88.70 4 85 940 4.00 5.50 -17.80 88.70 TC 110 940 7 264
1999 SI MM 21:00:00 TS -17.97 88.03 2179 2179 P____P______P_ SH311999 -18.22 87.41 107 3 -17.85 88.35 4 77 947 -17.85 88.35 TC 102 947 8 265
1999 SI MM 1999-04-02 00:00:00 TS -18.00 87.57 70 955 reunion 2203 2203 O____O______O_ jtwc_sh SH311999 -18.20 86.90 100 3 -17.90 87.90 4 70 955 3.50 5.00 -17.90 87.90 TC 95 955 10 269
1999 SI MM 03:00:00 TS -17.99 87.00 2241 2241 P____P______P_ SH311999 -18.19 86.43 90 2 -17.89 87.29 4 62 963 -17.89 87.29 TC 82 963 11 270
1999 SI MM 06:00:00 TS -18.00 86.40 55 972 reunion 2279 2279 O____O______O_ jtwc_sh SH311999 -18.20 86.00 80 1 -17.90 86.60 3 55 972 3.00 4.00 -17.90 86.60 TC 70 972 11 265
1999 SI MM 09:00:00 TS -18.08 85.86 2321 2321 P____P______P_ SH311999 -18.24 85.68 72 1 -18.00 85.95 3 54 973 -18.00 85.95 TC 70 973 11 261
1999 SI MM 12:00:00 TS -18.17 85.30 53 975 reunion 2370 2370 O____O______O_ jtwc_sh SH311999 -18.30 85.30 65 1 -18.10 85.30 3 53 975 3.00 4.00 -18.10 85.30 TC 70 975 12 264
1999 SI MM 15:00:00 TS -18.21 84.66 2412 2412 P____P______P_ SH311999 -18.37 84.70 70 1 -18.12 84.63 3 53 975 -18.12 84.63 TC 70 975 12 268
1999 SI MM 18:00:00 TS -18.20 84.00 53 975 reunion 2461 2461 O____O______O_ jtwc_sh SH311999 -18.40 84.00 75 1 -18.10 84.00 3 53 975 3.50 4.00 -18.10 84.00 TC 70 975 12 273
1999 SI MM 21:00:00 TS -18.14 83.38 2497 2497 P____P______P_ SH311999 -18.33 83.30 70 1 -18.05 83.43 3 51 976 -18.05 83.43 TC 67 976 11 277
1999 SI MM 1999-04-03 00:00:00 TS -18.07 82.80 50 978 reunion 2542 2542 O____O______O_ jtwc_sh SH311999 -18.20 82.60 65 1 -18.00 82.90 3 50 978 3.00 4.00 -18.00 82.90 TC 65 978 11 277
1999 SI MM 03:00:00 TS -18.01 82.25 2573 2521 P____P______P_ SH311999 -18.03 81.92 65 1 -17.99 82.42 3 50 978 -17.99 82.42 TC 65 978 11 275
1999 SI MM 06:00:00 TS -17.97 81.70 50 978 reunion 2521 2458 O____O______O_ jtwc_sh SH311999 -17.90 81.30 65 1 -18.00 81.90 3 50 978 3.00 4.00 -18.00 81.90 TC 65 978 11 273
1999 SI MM 09:00:00 TS -17.95 81.11 2458 2396 P____P______P_ SH311999 -17.87 80.78 62 0 -17.99 81.28 3 50 978 -17.99 81.28 TC 65 978 11 270
1999 SI MM 12:00:00 TS -17.97 80.50 50 978 reunion 2396 2333 O____O______O_ jtwc_sh SH311999 -17.90 80.30 60 0 -18.00 80.60 3 50 978 3.50 4.00 -18.00 80.60 TC 65 978 12 267
1999 SI MM 15:00:00 TS -18.00 79.89 2333 2269 P____P______P_ SH311999 -17.94 79.83 60 0 -18.03 79.91 3 49 979 -18.03 79.91 TC 62 979 12 265
1999 SI MM 18:00:00 TS -18.07 79.23 48 980 reunion 2259 2196 O____O______O_ jtwc_sh SH311999 -18.00 79.30 60 0 -18.10 79.20 3 48 980 3.00 3.50 -18.10 79.20 TC 60 980 13 264
1999 SI MM 21:00:00 TS -18.15 78.51 2186 2111 P____P______P_ SH311999 -18.04 78.65 57 0 -18.20 78.44 3 46 981 -18.20 78.44 TC 57 981 14 263
1999 SI MM 1999-04-04 00:00:00 TS -18.23 77.77 45 983 reunion 2111 2036 O____O______O_ jtwc_sh SH311999 -18.10 77.90 55 0 -18.30 77.70 3 45 983 3.00 3.50 -18.30 77.70 TC 55 983 14 264
1999 SI MM 03:00:00 TS -18.29 77.06 2036 1961 P____P______P_ SH311999 -18.19 77.05 55 0 -18.34 77.06 3 42 985 -18.34 77.06 TC 52 985 14 264
1999 SI MM 06:00:00 TS -18.37 76.33 40 987 reunion 1951 1876 O____O______O_ jtwc_sh SH311999 -18.30 76.20 55 0 -18.40 76.40 3 40 987 2.50 3.50 -18.40 76.40 TC 50 987 15 262
1999 SI MM 09:00:00 TS -18.50 75.51 1866 1791 P____P______P_ SH311999 -18.40 75.45 52 0 -18.55 75.54 3 38 988 -18.55 75.54 TC 47 988 15 260
1999 SI MM 12:00:00 TS -18.63 74.73 37 990 reunion 1781 1727 O____O______O_ jtwc_sh SH311999 -18.50 74.80 50 0 -18.70 74.70 3 37 990 2.50 3.00 -18.70 74.70 TC 45 990 13 261
1999 SI MM 15:00:00 TS -18.70 74.15 1717 1663 P____P______P_ SH311999 -18.60 74.30 50 0 -18.76 74.07 3 36 991 -18.76 74.07 TC 45 991 11 263
1999 SI MM 18:00:00 TS -18.77 73.60 35 992 reunion 1663 1599 O____O______O_ jtwc_sh SH311999 -18.70 73.80 50 0 -18.80 73.50 3 35 992 2.50 3.00 -18.80 73.50 TC 45 992 12 262
1999 SI MM 21:00:00 TS -18.87 72.94 1588 1524 P____P______P_ SH311999 -18.81 73.13 52 0 -18.91 72.84 3 35 992 -18.91 72.84 TC 45 992 13 261
1999 SI MM 1999-04-05 00:00:00 TS -18.97 72.27 35 992 reunion 1524 1462 O____O______O_ jtwc_sh SH311999 -18.90 72.40 55 0 -19.00 72.20 3 35 992 2.50 3.00 -19.00 72.20 TC 45 992 12 263
1999 SI MM 03:00:00 TS -19.01 71.67 1462 1399 P____P______P_ SH311999 -18.98 71.70 55 0 -19.03 71.65 3 32 993 -19.03 71.65 TC 42 993 11 268
1999 SI MM 06:00:00 TS -19.00 71.07 30 995 reunion 1399 1328 O____O______O_ jtwc_sh SH311999 -19.00 71.00 55 0 -19.00 71.10 2 30 995 2.00 2.50 -19.00 71.10 TC 40 995 12 275
1999 SI MM 09:00:00 TS -18.91 70.37 1328 1268 P____P______P_ SH311999 -18.92 70.25 50 0 -18.91 70.43 2 30 995 -18.91 70.43 TC 40 995 13 279
1999 SI MM 12:00:00 TS -18.80 69.73 30 995 reunion 1257 1218 O____O______O_ jtwc_sh SH311999 -18.80 69.60 45 0 -18.80 69.80 2 30 995 2.00 2.50 -18.80 69.80 TC 40 995 10 281
1999 SI MM 15:00:00 TS -18.72 69.29 1218 1176 P____P______P_ SH311999 -18.69 69.21 42 0 -18.73 69.34 2 30 996 -18.73 69.34 TC 37 996 8 280
1999 SI MM 18:00:00 TS -18.67 68.90 30 997 reunion 1176 1125 O____O______O_ jtwc_sh SH311999 -18.60 68.90 40 0 -18.70 68.90 2 30 997 2.00 2.50 -18.70 68.90 TC 35 997 8 274
1999 SI MM 21:00:00 TS -18.66 68.42 1125 1073 P____P______P_ SH311999 -18.52 68.53 40 0 -18.74 68.36 2 30 997 -18.74 68.36 TC 35 997 9 268
1999 SI MM 1999-04-06 00:00:00 TS -18.70 67.90 30 997 reunion 1073 1019 O____O______O_ jtwc_sh SH311999 -18.50 68.10 40 0 -18.80 67.80 2 30 997 2.50 2.50 -18.80 67.80 TC 35 997 10 263
1999 SI MM 03:00:00 TS -18.78 67.37 1019 968 P____P______P_ SH311999 -18.59 67.55 37 0 -18.87 67.29 2 30 997 -18.87 67.29 TC 35 997 10 262
1999 SI MM 06:00:00 TS -18.83 66.87 30 997 reunion 968 916 O____O______O_ jtwc_sh SH311999 -18.70 67.00 35 0 -18.90 66.80 2 30 997 2.50 2.50 -18.90 66.80 TC 35 997 9 270
1999 SI MM 09:00:00 TS -18.78 66.42 916 877 P____P______P_ SH311999 -18.76 66.58 35 0 -18.79 66.33 2 29 997 -18.79 66.33 TC 35 997 8 277
1999 SI MM 12:00:00 TS -18.73 66.00 28 998 reunion 877 834 O____O______O_ jtwc_sh SH311999 -18.80 66.20 35 0 -18.70 65.90 2 28 998 2.00 2.50 -18.70 65.90 TC 35 998 8 270
1999 SI MM 15:00:00 TS -18.78 65.60 834 790 P____P______P_ SH311999 -18.83 65.82 32 -1 -18.75 65.49 2 28 998 -18.75 65.49 TC 35 998 8 258
1999 SI MM 18:00:00 TS -18.90 65.20 28 998 reunion 790 744 O____O______O_ jtwc_sh SH311999 -18.90 65.40 30 -1 -18.90 65.10 2 28 998 2.00 2.50 -18.90 65.10 TC 35 998 9 249
1999 SI MM 21:00:00 TS -19.09 64.75 734 689 P____P______P_ SH311999 -19.04 64.87 30 -1 -19.11 64.69 2 26 999 -19.11 64.69 TC 32 999 10 243
1999 SI MM 1999-04-07 00:00:00 TS -19.33 64.30 25 1000 reunion 689 652 O____O______O_ jtwc_sh SH311999 -19.20 64.30 30 -1 -19.40 64.30 2 25 1000 2.00 2.00 -19.40 64.30 TC 30 1000 9 234
1999 SI MM 03:00:00 TS -19.64 63.93 642 607 P____P______P_ SH311999 -19.36 63.78 30 -1 -19.78 64.01 2 25 1000 -19.78 64.01 TC 30 1000 9 228
1999 SI MM 06:00:00 TS -19.94 63.59 25 1000 reunion 607 564 O____O______O_ jtwc_sh SH311999 -19.50 63.30 30 -1 -20.10 63.70 2 25 1000 2.00 2.00 -20.10 63.70 TC 30 1000 8 240
1999 SI MM 09:00:00 TS -20.05 63.16 563 522 P____P______P_ SH311999 -19.61 62.88 30 -1 -20.17 63.23 2 25 1000 -20.17 63.23 TC 30 1000 8 255
1999 SI MM 12:00:00 TS -20.14 62.77 25 1000 reunion 522 490 O____O______O_ jtwc_sh SH311999 -19.70 62.50 30 -1 -20.20 62.80 2 25 1000 2.00 2.00 -20.20 62.80 TC 30 1000 7 241
1999 SI MM 15:00:00 TS -20.39 62.53 490 479 _____P______P_ SH311999 -1 -20.39 62.53 2 25 1001 -20.39 62.53 TC 27 1001 7 212
1999 SI MM 18:00:00 TS -20.70 62.40 25 1002 reunion 481 481 _____O______O_ -1 -20.70 62.40 2 25 1002 1.50 2.00 -20.70 62.40 TC 25 1002 8 192
1999 SI MM 21:00:00 TS -21.15 62.35 486 486 _____P______P_ -1 -21.15 62.35 2 25 1002 -21.15 62.35 TC 25 1002 9 0
1999 SI MM 1999-04-08 00:00:00 TS -21.60 62.40 25 1002 reunion 499 499 _____O______O_ -1 -21.60 62.40 2 25 1002 2.00 2.00 -21.60 62.40 TC 25 1002 8 176
1999 SI MM 03:00:00 TS -21.90 62.41 509 509 _____P______P_ -1 -21.90 62.41 2 25 1002 -21.90 62.41 TC 25 1002 5 160
1999 SI MM 06:00:00 TS -22.10 62.60 25 1002 reunion 536 536 _____O______O_ -1 -22.10 62.60 2 25 1002 1.50 2.00 -22.10 62.60 TC 25 1002 7 117
1999 SI MM 09:00:00 TS -22.24 63.11 588 588 _____P______P_ -1 -22.24 63.11 2 25 1002 -22.24 63.11 TC 25 1002 11 100
1999 SI MM 12:00:00 TS -22.30 63.80 25 1002 reunion 660 660 _____O______O_ -1 -22.30 63.80 2 25 1002 1.50 2.00 -22.30 63.80 TC 25 1002 13 94
1999 SI MM 15:00:00 TS -22.31 64.46 729 729 _____P______P_ -1 -22.31 64.46 2 22 1003 -22.31 64.46 TC 22 1003 13 90
1999 SI MM 18:00:00 TS -22.30 65.20 20 1004 reunion 798 798 _____O______O_ -1 -22.30 65.20 2 20 1004 1.50 1.50 -22.30 65.20 TC 20 1004 15 89
1999 SI MM 21:00:00 TS -22.28 66.13 888 888 _____P______P_ -1 -22.28 66.13 2 20 1004 -22.28 66.13 TC 20 1004 16 90
1999 SI MM 1999-04-09 00:00:00 TS -22.30 66.90 20 1004 reunion 968 968 _____O______O_ -1 -22.30 66.90 2 20 1004 1.50 1.50 -22.30 66.90 TC 20 1004 10 101
1999 SI MM 03:00:00 TS -22.47 67.20 1003 1003 _____P______P_ -1 -22.47 67.20 2 20 1004 -22.47 67.20 TC 20 1004 5 129
1999 SI MM 06:00:00 TS -22.60 67.30 20 1005 reunion 1015 1015 _____O______O_ -1 -22.60 67.30 2 20 1005 1.50 1.50 -22.60 67.30 TC 20 1005 3 92
1999 SI MM 09:00:00 TS -22.48 67.54 1033 1033 _____P______P_ -1 -22.48 67.54 2 1005 -22.48 67.54 TC 20 1005 5 51
1999 SI MM 12:00:00 TS -22.30 67.70 1005 reunion 1049 1047 _____O______O_ -1 -22.30 67.70 6 1005 9.90 -22.30 67.70 TC 20 1005 3 31
1999 SI MM 15:00:00 TS -22.23 67.69 1047 1037 _____P______P_ -1 -22.23 67.69 6 1006 -22.23 67.69 TC 17 1006 1 320
1999 SI MM 18:00:00 TS -22.20 67.60 1007 reunion 1037 1025 _____O______O_ -1 -22.20 67.60 6 1007 9.90 -22.20 67.60 TC 15 1007 2 303
1999 SI MM 21:00:00 TS -22.13 67.52 1025 1014 _____P______P_ -1 -22.13 67.52 6 1007 -22.13 67.52 TC 12 1007 2 299
1999 SI MM 1999-04-10 00:00:00 TS -22.10 67.40 1008 reunion 1014 994 _____O______O_ -1 -22.10 67.40 6 1008 9.90 -22.10 67.40 TC 10 1008 3 270
1999 SI MM 03:00:00 TS -22.13 67.22 994 976 _____P______P_ -1 -22.13 67.22 6 1009 -22.13 67.22 TC 10 1009 4 255
1999 SI MM 06:00:00 TS -22.20 67.00 1010 reunion 976 958 _____O______O_ -1 -22.20 67.00 6 1010 9.90 -22.20 67.00 TC 10 1010 4 251
1999 SI MM 09:00:00 TS -22.28 66.77 958 928 _____P______P_ -1 -22.28 66.77 6 1010 -22.28 66.77 TC 10 1010 5 258
1999 SI MM 12:00:00 TS -22.30 66.50 1010 reunion 928 895 _____O______O_ -1 -22.30 66.50 6 1010 9.90 -22.30 66.50 TC 10 1010 6 279
1999 SI MM 15:00:00 TS -22.19 66.17 895 850 _____P______P_ -1 -22.19 66.17 6 1011 -22.19 66.17 TC 10 1011 7 295
1999 SI MM 18:00:00 TS -22.00 65.80 1012 reunion 850 _____O______O_ -1 -22.00 65.80 6 1012 9.90 -22.00 65.80 TC 10 1012 8 299